Time;durP1;ratioP1;P1;durP2;ratioP2;P2;SDS_P1;SDS_P2;PMS_P1;PMS_P2;Temp;Humidity;BMP_temperature;BMP_pressure;BME280_temperature;BME280_humidity;BME280_pressure;Samples;Min_cycle;Max_cycle;Signal;HPM_P1;HPM_P2
2023/02/06 00:00:06;;;;;;;0.55;0.55;;;-2.30;99.90;;;;;;4423137;32;20120;-62
2023/02/06 00:02:32;;;;;;;0.50;0.50;;;-2.40;99.90;;;;;;4423852;32;20135;-60
2023/02/06 00:04:57;;;;;;;2.28;1.48;;;-2.30;99.90;;;;;;4426525;32;20465;-60
2023/02/06 00:07:23;;;;;;;1.50;1.40;;;-2.20;99.90;;;;;;4426936;32;20073;-60
2023/02/06 00:09:48;;;;;;;0.90;0.90;;;-2.10;99.90;;;;;;4425288;32;20084;-61
2023/02/06 00:12:14;;;;;;;0.75;0.75;;;-2.10;99.90;;;;;;4426834;32;20112;-59
2023/02/06 00:14:39;;;;;;;3.03;2.30;;;-2.00;99.90;;;;;;4425795;32;20818;-60
2023/02/06 00:17:05;;;;;;;0.60;0.60;;;-2.10;99.90;;;;;;4424028;32;20105;-61
2023/02/06 00:19:30;;;;;;;1.85;1.30;;;-2.20;99.90;;;;;;4422775;32;20533;-62
2023/02/06 00:21:55;;;;;;;0.90;0.90;;;-2.40;99.90;;;;;;4424154;32;20509;-61
2023/02/06 00:24:21;;;;;;;1.60;1.50;;;-2.40;99.90;;;;;;4424578;32;20070;-61
2023/02/06 00:26:46;;;;;;;0.95;0.95;;;-2.40;99.90;;;;;;4426080;32;20053;-62
2023/02/06 00:29:12;;;;;;;1.60;1.50;;;-2.30;99.90;;;;;;4424498;32;20364;-61
2023/02/06 00:31:37;;;;;;;1.75;1.02;;;-2.20;99.90;;;;;;4410344;32;20097;-61
2023/02/06 00:34:03;;;;;;;1.73;1.42;;;-2.30;99.90;;;;;;4426476;32;20184;-61
2023/02/06 00:36:28;;;;;;;0.98;0.95;;;-2.20;99.90;;;;;;4426435;32;20057;-62
2023/02/06 00:38:54;;;;;;;0.60;0.60;;;-2.10;99.90;;;;;;4425044;32;20086;-61
2023/02/06 00:41:19;;;;;;;0.50;0.50;;;-2.10;99.90;;;;;;4425090;32;20427;-61
2023/02/06 00:43:45;;;;;;;1.12;1.05;;;-2.20;99.90;;;;;;4426417;32;20129;-62
2023/02/06 00:46:10;;;;;;;0.95;0.95;;;-2.30;99.90;;;;;;4424147;32;20817;-58
2023/02/06 00:48:36;;;;;;;0.80;0.80;;;-2.30;99.90;;;;;;4411628;32;20073;-61
2023/02/06 00:51:02;;;;;;;0.80;0.80;;;-2.30;99.90;;;;;;4411042;32;20572;-60
2023/02/06 00:53:28;;;;;;;4.37;1.60;;;-2.20;99.90;;;;;;4410304;32;20081;-60
2023/02/06 00:55:53;;;;;;;0.60;0.60;;;-2.10;99.90;;;;;;4425097;32;20093;-60
2023/02/06 00:58:19;;;;;;;1.37;1.27;;;-2.10;99.90;;;;;;4425427;32;20453;-60
2023/02/06 01:00:44;;;;;;;1.73;1.62;;;-2.10;99.90;;;;;;4426585;32;20061;-61
2023/02/06 01:03:10;;;;;;;0.77;0.77;;;-2.10;99.90;;;;;;4425230;32;20125;-61
2023/02/06 01:05:36;;;;;;;0.75;0.75;;;-2.00;99.90;;;;;;4410578;32;20477;-60
2023/02/06 01:08:01;;;;;;;0.77;0.77;;;-2.00;99.90;;;;;;4425271;32;20531;-61
2023/02/06 01:10:27;;;;;;;0.85;0.85;;;-2.00;99.90;;;;;;4424147;32;20089;-61
2023/02/06 01:12:53;;;;;;;0.70;0.70;;;-2.00;99.90;;;;;;4410519;32;20078;-61
2023/02/06 01:15:18;;;;;;;0.50;0.50;;;-2.00;99.90;;;;;;4424031;32;20069;-61
2023/02/06 01:17:44;;;;;;;1.85;1.50;;;-1.90;99.90;;;;;;4425510;32;20073;-62
2023/02/06 01:20:12;;;;;;;0.62;0.62;;;-1.80;99.90;;;;;;4423871;32;20431;-60
2023/02/06 01:22:37;;;;;;;1.62;1.52;;;-2.10;99.90;;;;;;4410610;32;20093;-61
2023/02/06 01:25:04;;;;;;;0.85;0.85;;;-2.20;99.90;;;;;;4425259;32;20082;-61
2023/02/06 01:27:30;;;;;;;0.95;0.95;;;-2.20;99.90;;;;;;4410952;32;20069;-60
2023/02/06 01:29:55;;;;;;;0.70;0.70;;;-2.20;99.90;;;;;;4423698;32;20637;-61
2023/02/06 01:32:21;;;;;;;0.50;0.50;;;-2.10;99.90;;;;;;4424499;32;20454;-60
2023/02/06 01:34:46;;;;;;;1.58;1.42;;;-2.20;99.90;;;;;;4410606;32;20286;-61
2023/02/06 01:37:12;;;;;;;0.73;0.73;;;-2.40;99.90;;;;;;4423703;32;20068;-61
2023/02/06 01:39:37;;;;;;;3.12;1.92;;;-2.30;99.90;;;;;;4425627;32;20593;-60
2023/02/06 01:42:03;;;;;;;0.73;0.73;;;-2.30;99.90;;;;;;4425655;32;20501;-61
2023/02/06 01:44:30;;;;;;;0.80;0.80;;;-2.40;99.90;;;;;;4409588;32;21272;-61
2023/02/06 01:46:57;;;;;;;1.17;1.08;;;-2.40;99.90;;;;;;4412029;32;20061;-60
2023/02/06 01:49:27;;;;;;;1.25;1.20;;;-2.30;99.90;;;;;;4409790;32;20058;-61
2023/02/06 01:51:58;;;;;;;0.60;0.60;;;-2.30;99.90;;;;;;4411783;32;20069;-60
2023/02/06 01:54:24;;;;;;;0.50;0.50;;;-2.30;99.90;;;;;;4424082;32;20142;-61
2023/02/06 01:56:55;;;;;;;0.77;0.77;;;-2.30;99.90;;;;;;4425420;32;20065;-61
2023/02/06 01:59:21;;;;;;;2.72;1.37;;;-2.20;99.90;;;;;;4424471;32;20115;-63
2023/02/06 02:01:47;;;;;;;0.50;0.50;;;-2.20;99.90;;;;;;4424106;32;20093;-63
2023/02/06 02:04:17;;;;;;;0.45;0.45;;;-2.30;99.90;;;;;;4409947;32;20529;-60
2023/02/06 02:06:47;;;;;;;0.70;0.70;;;-2.20;99.90;;;;;;4408320;32;20152;-60
2023/02/06 02:09:13;;;;;;;4.25;2.20;;;-2.20;99.90;;;;;;4423587;32;20096;-62
2023/02/06 02:11:40;;;;;;;0.70;0.70;;;-2.30;99.90;;;;;;4423216;32;20088;-61
2023/02/06 02:14:09;;;;;;;0.40;0.40;;;-2.30;99.90;;;;;;4409476;32;20490;-61
2023/02/06 02:17:01;;;;;;;3.05;2.15;;;-2.50;99.90;;;;;;4408405;32;20093;-60
2023/02/06 02:19:53;;;;;;;0.70;0.70;;;-2.80;99.90;;;;;;4402906;32;20061;-60
2023/02/06 02:22:44;;;;;;;0.60;0.60;;;-2.80;99.90;;;;;;4425258;32;20104;-61
2023/02/06 02:25:44;;;;;;;0.75;0.75;;;-2.80;99.90;;;;;;4413046;32;20435;-61
2023/02/06 02:28:22;;;;;;;0.80;0.80;;;-2.80;99.90;;;;;;4412009;32;20501;-61
2023/02/06 02:31:09;;;;;;;0.55;0.55;;;-2.60;99.90;;;;;;4425042;32;20089;-62
2023/02/06 02:34:08;;;;;;;0.82;0.82;;;-2.80;99.90;;;;;;4411659;32;20082;-60
2023/02/06 02:37:04;;;;;;;0.73;0.73;;;-2.90;99.90;;;;;;4410871;32;20212;-62
2023/02/06 02:39:44;;;;;;;1.33;1.23;;;-2.70;99.90;;;;;;4413065;32;20081;-61
2023/02/06 02:42:17;;;;;;;0.55;0.55;;;-2.70;99.90;;;;;;4423542;32;20531;-61
2023/02/06 02:45:07;;;;;;;1.42;1.33;;;-2.70;99.90;;;;;;4423976;32;20118;-61
2023/02/06 02:47:44;;;;;;;0.43;0.43;;;-2.60;99.90;;;;;;4414458;32;20082;-61
2023/02/06 02:50:10;;;;;;;0.75;0.75;;;-2.60;99.90;;;;;;4410846;32;20064;-60
2023/02/06 02:52:37;;;;;;;1.00;1.00;;;-2.60;99.90;;;;;;4422808;32;20120;-61
2023/02/06 02:55:15;;;;;;;0.60;0.60;;;-2.60;99.90;;;;;;4423338;32;20081;-61
2023/02/06 02:57:42;;;;;;;0.50;0.50;;;-2.60;99.90;;;;;;4410243;32;20065;-61
2023/02/06 03:00:09;;;;;;;0.55;0.55;;;-2.60;99.90;;;;;;4410561;32;20060;-60
2023/02/06 03:02:37;;;;;;;3.45;1.52;;;-2.60;99.90;;;;;;4410219;32;20544;-60
2023/02/06 03:05:07;;;;;;;0.70;0.70;;;-2.50;99.90;;;;;;4396393;32;20167;-61
2023/02/06 03:07:38;;;;;;;2.05;1.70;;;-2.60;99.90;;;;;;4411293;32;20587;-60
2023/02/06 03:10:32;;;;;;;0.80;0.80;;;-2.50;99.90;;;;;;4423885;32;20113;-61
2023/02/06 03:13:26;;;;;;;0.88;0.88;;;-2.60;99.90;;;;;;4413340;32;20073;-61
2023/02/06 03:16:16;;;;;;;1.33;1.23;;;-2.60;99.90;;;;;;4412540;32;20541;-60
2023/02/06 03:18:47;;;;;;;0.62;0.62;;;-2.80;99.90;;;;;;4412656;32;20430;-60
2023/02/06 03:21:16;;;;;;;0.95;0.95;;;-2.60;99.90;;;;;;4422097;32;20081;-60
2023/02/06 03:23:44;;;;;;;0.70;0.70;;;-2.60;99.90;;;;;;4419373;32;20129;-60
2023/02/06 03:26:16;;;;;;;0.88;0.88;;;-2.60;99.90;;;;;;4421720;32;20061;-61
2023/02/06 03:28:47;;;;;;;0.52;0.52;;;-2.50;99.90;;;;;;4409448;32;20096;-60
2023/02/06 03:31:18;;;;;;;0.80;0.80;;;-2.50;99.90;;;;;;4409787;32;20085;-60
2023/02/06 03:33:52;;;;;;;0.50;0.50;;;-2.60;99.90;;;;;;4408518;32;20085;-61
2023/02/06 03:36:18;;;;;;;0.93;0.90;;;-2.50;99.90;;;;;;4406607;32;20085;-62
2023/02/06 03:38:47;;;;;;;2.10;1.70;;;-2.40;99.90;;;;;;4422806;32;20268;-62
2023/02/06 03:41:14;;;;;;;0.50;0.50;;;-2.30;99.90;;;;;;4423707;32;20092;-59
2023/02/06 03:43:43;;;;;;;1.25;0.93;;;-2.30;99.90;;;;;;4409432;32;20438;-61
2023/02/06 03:46:11;;;;;;;0.50;0.50;;;-2.30;99.90;;;;;;4409650;32;20533;-61
2023/02/06 03:48:42;;;;;;;0.88;0.88;;;-2.20;99.90;;;;;;4422821;32;20841;-61
2023/02/06 03:51:14;;;;;;;1.27;1.12;;;-2.10;99.90;;;;;;4423140;32;20144;-62
2023/02/06 03:53:41;;;;;;;0.50;0.50;;;-2.10;99.90;;;;;;4419980;32;20073;-62
2023/02/06 03:56:11;;;;;;;0.40;0.40;;;-2.20;99.90;;;;;;4424702;32;20109;-60
2023/02/06 03:58:37;;;;;;;0.50;0.50;;;-2.20;99.90;;;;;;4408045;32;20427;-61
2023/02/06 04:01:05;;;;;;;0.65;0.65;;;-2.00;99.90;;;;;;4422373;32;20147;-61
2023/02/06 04:03:31;;;;;;;0.40;0.40;;;-2.00;99.90;;;;;;4408615;32;20548;-60
2023/02/06 04:05:56;;;;;;;0.45;0.45;;;-2.00;99.90;;;;;;4409181;32;20077;-61
2023/02/06 04:08:22;;;;;;;0.40;0.40;;;-2.10;99.90;;;;;;4422387;32;20089;-62
2023/02/06 04:10:47;;;;;;;0.57;0.57;;;-2.10;99.90;;;;;;4409243;32;20085;-61
2023/02/06 04:13:13;;;;;;;0.60;0.60;;;-2.00;99.90;;;;;;4422993;32;20093;-62
2023/02/06 04:15:38;;;;;;;0.65;0.65;;;-2.00;99.90;;;;;;4410270;32;20147;-62
2023/02/06 04:18:04;;;;;;;0.75;0.75;;;-1.90;99.90;;;;;;4424881;32;20435;-62
2023/02/06 04:20:29;;;;;;;0.62;0.60;;;-1.80;99.90;;;;;;4422693;32;20061;-60
2023/02/06 04:22:56;;;;;;;0.62;0.62;;;-1.80;99.90;;;;;;4408872;32;20135;-61
2023/02/06 04:25:21;;;;;;;0.62;0.62;;;-1.90;99.90;;;;;;4424310;32;20094;-61
2023/02/06 04:27:47;;;;;;;2.85;2.15;;;-2.00;99.90;;;;;;4422937;32;20086;-61
2023/02/06 04:30:12;;;;;;;0.50;0.50;;;-2.00;99.90;;;;;;4425161;32;20053;-62
2023/02/06 04:32:38;;;;;;;0.50;0.50;;;-1.90;99.90;;;;;;4423421;32;20089;-60
2023/02/06 04:35:04;;;;;;;0.60;0.60;;;-1.80;99.90;;;;;;4423995;32;20058;-63
2023/02/06 04:37:30;;;;;;;0.68;0.68;;;-1.90;99.90;;;;;;4422984;32;20161;-61
2023/02/06 04:39:56;;;;;;;0.60;0.60;;;-1.80;99.90;;;;;;4422249;32;20077;-61
2023/02/06 04:42:21;;;;;;;0.50;0.50;;;-1.80;99.90;;;;;;4423655;32;20116;-61
2023/02/06 04:44:47;;;;;;;0.70;0.70;;;-1.80;99.90;;;;;;4423728;32;20065;-62
2023/02/06 04:47:12;;;;;;;0.70;0.70;;;-1.80;99.90;;;;;;4423696;32;20435;-61
2023/02/06 04:49:38;;;;;;;0.77;0.57;;;-1.80;99.90;;;;;;4425895;32;20229;-62
2023/02/06 04:52:03;;;;;;;0.60;0.60;;;-1.80;99.90;;;;;;4425322;32;20097;-61
2023/02/06 04:54:29;;;;;;;0.60;0.60;;;-1.80;99.90;;;;;;4425374;32;20061;-62
2023/02/06 04:56:54;;;;;;;0.40;0.40;;;-1.90;99.90;;;;;;4426499;32;20090;-61
2023/02/06 04:59:19;;;;;;;0.50;0.50;;;-1.90;99.90;;;;;;4426484;32;20065;-61
2023/02/06 05:01:45;;;;;;;0.52;0.52;;;-1.90;99.90;;;;;;4426212;32;20069;-61
2023/02/06 05:04:10;;;;;;;0.57;0.57;;;-1.90;99.90;;;;;;4424726;32;20061;-62
2023/02/06 05:06:36;;;;;;;0.40;0.40;;;-1.80;99.90;;;;;;4424786;32;20093;-61
2023/02/06 05:09:02;;;;;;;0.50;0.50;;;-1.80;99.90;;;;;;4425156;32;20089;-62
2023/02/06 05:11:28;;;;;;;4.35;1.92;;;-1.80;99.90;;;;;;4425793;32;20092;-62
2023/02/06 05:13:53;;;;;;;0.43;0.43;;;-1.70;99.90;;;;;;4425496;32;20061;-60
2023/02/06 05:16:19;;;;;;;0.47;0.47;;;-1.80;99.90;;;;;;4425553;32;20082;-62
2023/02/06 05:18:45;;;;;;;1.40;1.30;;;-1.70;99.90;;;;;;4426198;32;20061;-61
2023/02/06 05:21:11;;;;;;;0.60;0.60;;;-1.70;99.90;;;;;;4406622;32;20093;-61
2023/02/06 05:23:37;;;;;;;1.65;1.17;;;-1.70;99.90;;;;;;4407204;32;20251;-61
2023/02/06 05:26:04;;;;;;;0.77;0.77;;;-1.70;99.90;;;;;;4419992;32;20317;-61
2023/02/06 05:28:32;;;;;;;0.62;0.62;;;-1.70;99.90;;;;;;4410399;32;20081;-62
2023/02/06 05:30:58;;;;;;;1.25;1.15;;;-1.80;99.90;;;;;;4425898;32;20433;-62
2023/02/06 05:33:24;;;;;;;0.40;0.40;;;-1.80;99.90;;;;;;4412725;32;20097;-61
2023/02/06 05:35:49;;;;;;;0.52;0.52;;;-1.70;99.90;;;;;;4425469;32;20093;-62
2023/02/06 05:38:15;;;;;;;0.43;0.43;;;-1.80;99.90;;;;;;4422925;32;20094;-62
2023/02/06 05:40:40;;;;;;;2.35;1.30;;;-1.70;99.90;;;;;;4423706;32;20096;-61
2023/02/06 05:43:05;;;;;;;0.60;0.60;;;-1.70;99.90;;;;;;4423176;32;20093;-61
2023/02/06 05:45:31;;;;;;;0.60;0.60;;;-1.70;99.90;;;;;;4424107;32;20097;-62
2023/02/06 05:47:57;;;;;;;0.60;0.60;;;-1.80;99.90;;;;;;4422650;32;20101;-61
2023/02/06 05:50:22;;;;;;;0.90;0.82;;;-1.80;99.90;;;;;;4408817;32;20120;-61
2023/02/06 05:52:48;;;;;;;0.50;0.50;;;-1.70;99.90;;;;;;4425171;32;20082;-60
2023/02/06 05:55:15;;;;;;;0.40;0.40;;;-1.60;99.90;;;;;;4424003;32;20073;-61
2023/02/06 05:57:41;;;;;;;0.40;0.40;;;-1.60;99.90;;;;;;4424371;32;20061;-61
2023/02/06 06:00:08;;;;;;;0.55;0.55;;;-1.60;99.90;;;;;;4421948;32;20446;-60
2023/02/06 06:02:33;;;;;;;0.60;0.60;;;-1.60;99.90;;;;;;4404867;32;20513;-61
2023/02/06 06:04:58;;;;;;;0.50;0.50;;;-1.70;99.90;;;;;;4420772;32;20187;-61
2023/02/06 06:07:24;;;;;;;0.93;0.93;;;-1.70;99.90;;;;;;4422866;32;20557;-60
2023/02/06 06:09:49;;;;;;;0.57;0.57;;;-1.60;99.90;;;;;;4422962;32;20154;-61
2023/02/06 06:12:15;;;;;;;1.45;1.33;;;-1.70;99.90;;;;;;4421877;32;20062;-61
2023/02/06 06:14:40;;;;;;;0.70;0.70;;;-1.70;99.90;;;;;;4424554;32;20660;-61
2023/02/06 06:17:06;;;;;;;0.40;0.40;;;-1.60;99.90;;;;;;4410894;32;20670;-60
2023/02/06 06:19:32;;;;;;;1.02;1.00;;;-1.50;99.90;;;;;;4403766;32;20081;-59
2023/02/06 06:21:57;;;;;;;0.50;0.50;;;-1.40;99.90;;;;;;4424539;32;20069;-64
2023/02/06 06:24:24;;;;;;;1.98;0.98;;;-1.40;99.90;;;;;;4420156;32;20109;-62
2023/02/06 06:26:50;;;;;;;0.75;0.75;;;-1.40;99.90;;;;;;4405658;32;20619;-62
2023/02/06 06:29:15;;;;;;;0.55;0.55;;;-1.40;99.90;;;;;;4413889;32;20148;-60
2023/02/06 06:31:41;;;;;;;0.45;0.45;;;-1.50;99.90;;;;;;4397096;32;20557;-60
2023/02/06 06:34:06;;;;;;;0.50;0.50;;;-1.40;99.90;;;;;;4402829;32;20513;-62
2023/02/06 06:36:33;;;;;;;0.50;0.50;;;-1.30;99.90;;;;;;4405027;32;20074;-61
2023/02/06 06:38:59;;;;;;;0.70;0.70;;;-1.40;99.90;;;;;;4408867;32;20085;-63
2023/02/06 06:41:25;;;;;;;2.72;1.20;;;-1.40;99.90;;;;;;4395210;32;20147;-64
2023/02/06 06:43:53;;;;;;;0.50;0.50;;;-1.40;99.90;;;;;;4412781;32;20420;-62
2023/02/06 06:46:18;;;;;;;0.60;0.60;;;-1.30;99.90;;;;;;4409103;32;20310;-62
2023/02/06 06:48:44;;;;;;;0.60;0.60;;;-1.30;99.90;;;;;;4412369;32;20594;-63
2023/02/06 06:51:09;;;;;;;0.40;0.40;;;-1.30;99.90;;;;;;4418397;32;20378;-63
2023/02/06 06:53:38;;;;;;;0.50;0.50;;;-1.20;99.90;;;;;;4408769;32;20124;-63
2023/02/06 06:56:05;;;;;;;0.43;0.43;;;-1.30;99.90;;;;;;4397580;32;20127;-63
2023/02/06 06:58:31;;;;;;;0.77;0.77;;;-1.20;99.90;;;;;;4382517;32;20447;-63
2023/02/06 07:00:56;;;;;;;1.50;1.40;;;-1.10;99.90;;;;;;4406473;32;20159;-63
2023/02/06 07:03:22;;;;;;;0.80;0.80;;;-1.10;99.90;;;;;;4400990;32;20169;-67
2023/02/06 07:05:47;;;;;;;0.55;0.55;;;-1.10;99.90;;;;;;4398510;32;20193;-63
2023/02/06 07:08:13;;;;;;;0.40;0.40;;;-1.10;99.90;;;;;;4398770;32;20512;-62
2023/02/06 07:10:38;;;;;;;1.05;1.05;;;-1.10;99.90;;;;;;4397116;32;20084;-63
2023/02/06 07:13:04;;;;;;;1.55;1.15;;;-1.20;99.90;;;;;;4401356;32;20105;-63
2023/02/06 07:15:29;;;;;;;0.70;0.70;;;-1.20;99.90;;;;;;4382183;32;20085;-64
2023/02/06 07:17:55;;;;;;;0.80;0.80;;;-1.10;99.90;;;;;;4396443;32;20110;-63
2023/02/06 07:20:20;;;;;;;0.57;0.57;;;-1.00;99.90;;;;;;4378639;32;20124;-63
2023/02/06 07:22:46;;;;;;;1.73;1.58;;;-1.00;99.90;;;;;;4388219;32;20900;-62
2023/02/06 07:25:12;;;;;;;0.52;0.52;;;-0.90;99.90;;;;;;4393003;32;20065;-62
2023/02/06 07:27:37;;;;;;;1.45;1.35;;;-1.00;99.90;;;;;;4399263;32;20225;-61
2023/02/06 07:30:03;;;;;;;1.27;1.15;;;-1.10;99.90;;;;;;4395042;32;20670;-62
2023/02/06 07:32:29;;;;;;;0.70;0.70;;;-1.10;99.90;;;;;;4391786;32;20101;-62
2023/02/06 07:34:54;;;;;;;0.60;0.60;;;-1.10;99.90;;;;;;4386805;32;20168;-62
2023/02/06 07:37:21;;;;;;;0.47;0.47;;;-1.10;99.90;;;;;;4389842;32;20101;-62
2023/02/06 07:39:46;;;;;;;0.90;0.90;;;-1.20;99.90;;;;;;4390501;32;20096;-62
2023/02/06 07:42:12;;;;;;;1.08;1.08;;;-1.10;99.90;;;;;;4383855;32;20185;-63
2023/02/06 07:44:37;;;;;;;0.65;0.65;;;-1.00;99.90;;;;;;4393216;32;20085;-63
2023/02/06 07:47:04;;;;;;;0.70;0.70;;;-1.00;99.90;;;;;;4385903;32;20710;-64
2023/02/06 07:49:30;;;;;;;1.17;0.93;;;-0.90;99.90;;;;;;4386151;32;20565;-63
2023/02/06 07:51:55;;;;;;;0.73;0.73;;;-0.80;99.90;;;;;;4390203;32;20186;-64
2023/02/06 07:54:21;;;;;;;0.62;0.62;;;-0.80;99.90;;;;;;4394856;32;20243;-63
2023/02/06 07:56:47;;;;;;;0.60;0.60;;;-0.80;99.90;;;;;;4391088;32;20104;-64
2023/02/06 07:59:13;;;;;;;0.52;0.52;;;-0.70;99.90;;;;;;4380991;32;20111;-64
2023/02/06 08:01:38;;;;;;;1.00;0.90;;;-0.70;99.90;;;;;;4396225;32;20179;-64
2023/02/06 08:04:04;;;;;;;1.50;1.40;;;-0.60;99.90;;;;;;4382582;32;20070;-62
2023/02/06 08:06:29;;;;;;;0.93;0.82;;;-0.50;99.90;;;;;;4396945;32;20115;-63
2023/02/06 08:08:55;;;;;;;0.60;0.60;;;-0.50;99.90;;;;;;4393440;32;20070;-62
2023/02/06 08:11:24;;;;;;;0.57;0.57;;;-0.40;99.90;;;;;;4387606;32;20117;-62
2023/02/06 08:13:49;;;;;;;0.70;0.70;;;-0.40;99.90;;;;;;4375678;32;20101;-62
2023/02/06 08:16:18;;;;;;;0.75;0.75;;;-0.40;99.90;;;;;;4377086;32;20454;-63
2023/02/06 08:18:43;;;;;;;0.95;0.95;;;-0.40;99.90;;;;;;4382126;32;20105;-63
2023/02/06 08:21:11;;;;;;;0.77;0.77;;;-0.60;99.90;;;;;;4392881;32;20089;-63
2023/02/06 08:23:37;;;;;;;0.68;0.68;;;-0.60;99.90;;;;;;4397326;32;20219;-63
2023/02/06 08:26:06;;;;;;;0.65;0.65;;;-0.50;99.90;;;;;;4379935;32;20093;-61
2023/02/06 08:28:34;;;;;;;0.43;0.43;;;-0.50;99.90;;;;;;4392723;32;20778;-63
2023/02/06 08:31:06;;;;;;;0.98;0.98;;;-0.50;99.90;;;;;;4373061;32;21248;-63
2023/02/06 08:33:32;;;;;;;0.68;0.68;;;-0.50;99.90;;;;;;4383074;32;20176;-63
2023/02/06 08:36:01;;;;;;;0.60;0.60;;;-0.50;99.90;;;;;;4397694;32;20394;-63
2023/02/06 08:38:26;;;;;;;0.50;0.50;;;-0.50;99.90;;;;;;4380170;32;20089;-64
2023/02/06 08:40:52;;;;;;;4.75;2.20;;;-0.40;99.90;;;;;;4405746;32;21875;-64
2023/02/06 08:43:18;;;;;;;0.62;0.62;;;-0.40;99.90;;;;;;4405825;32;20327;-62
2023/02/06 08:45:48;;;;;;;0.85;0.85;;;-0.40;99.90;;;;;;4387120;32;20097;-62
2023/02/06 08:48:14;;;;;;;0.70;0.70;;;-0.40;99.90;;;;;;4367782;32;20138;-62
2023/02/06 08:50:39;;;;;;;0.62;0.62;;;-0.30;99.90;;;;;;4386636;32;20495;-63
2023/02/06 08:53:05;;;;;;;0.50;0.50;;;-0.30;99.90;;;;;;4377605;32;20109;-62
2023/02/06 08:55:30;;;;;;;0.75;0.75;;;-0.30;99.90;;;;;;4381723;32;20589;-63
2023/02/06 08:57:56;;;;;;;1.62;1.52;;;-0.20;99.90;;;;;;4385139;32;20092;-62
2023/02/06 09:00:21;;;;;;;0.45;0.45;;;-0.10;99.90;;;;;;4387917;32;20756;-62
2023/02/06 09:02:47;;;;;;;0.50;0.50;;;-0.20;99.90;;;;;;4385167;32;20094;-63
2023/02/06 09:05:14;;;;;;;1.05;1.05;;;-0.10;99.90;;;;;;4391403;32;20210;-63
2023/02/06 09:07:39;;;;;;;0.50;0.50;;;-0.10;99.90;;;;;;4389735;32;20101;-62
2023/02/06 09:10:05;;;;;;;1.73;1.62;;;0.00;99.90;;;;;;4392955;32;20109;-62
2023/02/06 09:12:31;;;;;;;2.78;1.25;;;0.00;99.90;;;;;;4380634;32;20184;-62
2023/02/06 09:14:56;;;;;;;0.60;0.60;;;0.10;99.90;;;;;;4381489;32;20233;-63
2023/02/06 09:17:22;;;;;;;1.95;1.60;;;0.10;99.90;;;;;;4384731;32;20148;-62
2023/02/06 09:19:47;;;;;;;0.85;0.70;;;0.10;99.90;;;;;;4376596;32;20259;-62
2023/02/06 09:22:13;;;;;;;0.50;0.50;;;0.20;99.90;;;;;;4383397;32;20109;-63
2023/02/06 09:24:38;;;;;;;1.70;1.58;;;0.30;99.90;;;;;;4362175;32;20430;-62
2023/02/06 09:27:04;;;;;;;0.50;0.50;;;0.40;99.90;;;;;;4383396;32;20751;-62
2023/02/06 09:29:31;;;;;;;0.70;0.70;;;0.40;99.90;;;;;;4376899;32;20105;-62
2023/02/06 09:32:00;;;;;;;0.52;0.52;;;0.40;99.90;;;;;;4367437;32;20093;-62
2023/02/06 09:34:26;;;;;;;1.50;1.40;;;0.40;99.90;;;;;;4364638;32;20778;-62
2023/02/06 09:36:53;;;;;;;1.95;1.35;;;0.40;99.90;;;;;;4357832;32;21291;-62
2023/02/06 09:39:19;;;;;;;0.55;0.55;;;0.40;99.90;;;;;;4373884;32;20124;-61
2023/02/06 09:41:58;;;;;;;0.70;0.70;;;0.40;99.90;;;;;;4379966;32;21608;-63
2023/02/06 09:44:35;;;;;;;0.47;0.47;;;0.40;99.90;;;;;;4378255;32;20592;-61
2023/02/06 09:47:30;;;;;;;0.70;0.70;;;0.40;99.90;;;;;;4365286;32;20105;-61
2023/02/06 09:50:04;;;;;;;0.55;0.55;;;0.40;99.90;;;;;;4359668;32;20304;-62
2023/02/06 09:52:42;;;;;;;1.30;1.25;;;0.50;99.90;;;;;;4359132;32;20096;-62
2023/02/06 09:55:11;;;;;;;0.50;0.50;;;0.50;99.90;;;;;;4362988;32;20101;-62
2023/02/06 09:58:05;;;;;;;0.60;0.60;;;0.50;99.90;;;;;;4385312;32;20148;-62
2023/02/06 10:00:56;;;;;;;1.15;1.12;;;0.60;99.90;;;;;;4364289;32;20097;-62
2023/02/06 10:03:37;;;;;;;0.70;0.70;;;0.60;99.90;;;;;;4365582;32;20448;-62
2023/02/06 10:06:26;;;;;;;3.55;1.00;;;0.70;99.90;;;;;;4387029;32;20508;-61
2023/02/06 10:08:59;;;;;;;1.12;1.12;;;0.70;99.90;;;;;;4367507;32;20287;-62
2023/02/06 10:11:50;;;;;;;1.55;0.98;;;0.70;99.90;;;;;;4368836;32;20236;-62
2023/02/06 10:14:25;;;;;;;;;;;0.70;99.90;;;;;;4381669;32;20268;-62
2023/02/06 10:16:57;;;;;;;0.60;0.60;;;0.80;99.90;;;;;;4373152;32;19968;-62
2023/02/06 10:19:47;;;;;;;5.82;2.42;;;0.80;99.90;;;;;;4386847;32;20813;-63
2023/02/06 10:22:19;;;;;;;0.80;0.80;;;0.90;99.90;;;;;;4360026;32;20231;-64
2023/02/06 10:25:02;;;;;;;0.70;0.70;;;0.90;99.90;;;;;;4359750;32;21679;-61
2023/02/06 10:27:28;;;;;;;0.50;0.50;;;1.00;99.90;;;;;;4373886;32;20513;-62
2023/02/06 10:29:53;;;;;;;1.65;1.55;;;1.00;99.90;;;;;;4371546;32;20089;-63
2023/02/06 10:32:34;;;;;;;0.85;0.85;;;1.00;99.90;;;;;;4380154;32;20117;-62
2023/02/06 10:35:22;;;;;;;1.08;1.08;;;1.10;99.90;;;;;;4382874;32;20509;-63
2023/02/06 10:38:26;;;;;;;2.08;1.80;;;1.10;99.90;;;;;;4378830;32;20162;-63
2023/02/06 10:41:18;;;;;;;0.40;0.40;;;1.10;99.90;;;;;;4380006;32;20563;-63
2023/02/06 10:44:14;;;;;;;0.95;0.93;;;1.10;99.90;;;;;;4383164;32;20097;-64
2023/02/06 10:46:43;;;;;;;0.45;0.45;;;1.20;99.90;;;;;;4380912;32;21565;-64
2023/02/06 10:49:23;;;;;;;1.25;1.15;;;1.30;99.90;;;;;;4383863;32;20197;-64
2023/02/06 10:51:55;;;;;;;0.60;0.60;;;1.30;99.90;;;;;;4375218;32;20080;-64
2023/02/06 10:54:38;;;;;;;1.12;1.10;;;1.30;99.90;;;;;;4361354;32;20126;-64
2023/02/06 10:57:12;;;;;;;0.80;0.75;;;1.30;99.90;;;;;;4386206;32;20081;-64
2023/02/06 10:59:43;;;;;;;1.37;1.27;;;1.30;99.90;;;;;;4371744;32;20093;-64
2023/02/06 11:02:27;;;;;;;1.58;1.08;;;1.30;99.90;;;;;;4370425;32;20223;-66
2023/02/06 11:05:05;;;;;;;0.68;0.68;;;1.30;99.90;;;;;;4390002;32;20138;-64
2023/02/06 11:07:40;;;;;;;0.88;0.88;;;1.30;99.90;;;;;;4379715;32;20116;-64
2023/02/06 11:10:06;;;;;;;0.82;0.82;;;1.30;99.90;;;;;;4384804;32;20147;-63
2023/02/06 11:12:36;;;;;;;0.82;0.82;;;1.20;99.90;;;;;;4388207;32;20069;-64
2023/02/06 11:15:14;;;;;;;0.50;0.50;;;1.20;99.90;;;;;;4363198;32;21618;-62
2023/02/06 11:17:42;;;;;;;0.50;0.50;;;1.10;99.90;;;;;;4348032;32;21359;-62
2023/02/06 11:20:19;;;;;;;0.50;0.50;;;1.10;99.90;;;;;;4368080;32;20438;-62
2023/02/06 11:22:44;;;;;;;0.60;0.60;;;1.10;99.90;;;;;;4388812;32;20061;-62
2023/02/06 11:25:21;;;;;;;1.55;1.08;;;1.10;99.90;;;;;;4399182;32;20097;-62
2023/02/06 11:27:47;;;;;;;3.05;1.98;;;1.10;99.90;;;;;;4376936;32;20089;-64
2023/02/06 11:30:33;;;;;;;1.15;0.85;;;1.20;99.90;;;;;;4384534;32;20090;-63
2023/02/06 11:33:05;;;;;;;0.52;0.52;;;1.20;99.90;;;;;;4406319;32;20092;-63
2023/02/06 11:35:36;;;;;;;4.87;1.35;;;1.20;99.90;;;;;;4389446;32;20127;-63
2023/02/06 11:38:14;;;;;;;7.43;1.92;;;1.20;99.90;;;;;;4374123;32;20093;-63
2023/02/06 11:40:39;;;;;;;0.95;0.90;;;1.20;99.90;;;;;;4382837;32;20097;-63
2023/02/06 11:43:18;;;;;;;1.05;1.05;;;1.20;99.90;;;;;;4385472;32;78183;-63
2023/02/06 11:45:46;;;;;;;1.10;1.10;;;1.20;99.90;;;;;;4387469;32;20256;-63
2023/02/06 11:48:33;;;;;;;2.20;1.45;;;1.20;99.90;;;;;;4376329;32;21889;-64
2023/02/06 11:50:58;;;;;;;1.00;0.85;;;1.20;99.90;;;;;;4402332;32;20121;-63
2023/02/06 11:53:24;;;;;;;2.53;1.40;;;1.20;99.90;;;;;;4361458;32;20088;-62
2023/02/06 11:56:01;;;;;;;0.90;0.90;;;1.30;99.90;;;;;;4377908;32;20082;-63
2023/02/06 11:58:28;;;;;;;1.48;1.23;;;1.30;99.90;;;;;;4363049;32;21022;-62
2023/02/06 12:00:57;;;;;;;0.60;0.60;;;1.10;99.90;;;;;;4364449;32;20197;-63
2023/02/06 12:03:30;;;;;;;0.50;0.50;;;1.00;99.90;;;;;;4378529;32;20065;-63
2023/02/06 12:06:01;;;;;;;0.93;0.93;;;1.10;99.90;;;;;;4377960;32;20825;-63
2023/02/06 12:08:38;;;;;;;1.30;1.25;;;1.20;99.90;;;;;;4362225;32;20546;-63
2023/02/06 12:11:09;;;;;;;1.30;1.20;;;1.20;99.90;;;;;;4364699;32;20093;-64
2023/02/06 12:13:43;;;;;;;1.55;1.45;;;1.20;99.90;;;;;;4362595;32;20172;-63
2023/02/06 12:16:12;;;;;;;0.65;0.65;;;1.20;99.90;;;;;;4374992;32;20105;-63
2023/02/06 12:18:41;;;;;;;1.20;1.20;;;1.20;99.90;;;;;;4367974;32;20106;-63
2023/02/06 12:21:12;;;;;;;1.23;1.23;;;1.30;99.90;;;;;;4345876;32;20156;-63
2023/02/06 12:23:43;;;;;;;1.27;1.23;;;1.30;99.90;;;;;;4357228;32;20093;-63
2023/02/06 12:26:20;;;;;;;0.65;0.65;;;1.30;99.90;;;;;;4373756;32;20315;-63
2023/02/06 12:28:58;;;;;;;1.98;1.87;;;1.20;99.90;;;;;;4356703;32;22150;-63
2023/02/06 12:31:38;;;;;;;0.88;0.88;;;1.20;99.90;;;;;;4362463;32;20114;-63
2023/02/06 12:34:15;;;;;;;1.45;1.35;;;1.20;99.90;;;;;;4352798;32;20114;-63
2023/02/06 12:36:53;;;;;;;0.90;0.90;;;1.20;99.90;;;;;;4383865;32;20145;-63
2023/02/06 12:39:21;;;;;;;0.90;0.90;;;1.20;99.90;;;;;;4374002;32;20158;-62
2023/02/06 12:42:04;;;;;;;4.47;1.67;;;1.10;99.90;;;;;;4353470;32;20188;-62
2023/02/06 12:44:34;;;;;;;0.70;0.70;;;1.20;99.90;;;;;;4378638;32;20117;-63
2023/02/06 12:47:10;;;;;;;1.45;1.35;;;1.20;99.90;;;;;;4380322;32;20906;-62
2023/02/06 12:49:47;;;;;;;1.92;0.95;;;1.30;99.90;;;;;;4384032;32;20117;-59
2023/02/06 12:52:22;;;;;;;0.80;0.80;;;1.30;99.90;;;;;;4382969;32;21084;-60
2023/02/06 12:54:56;;;;;;;0.68;0.60;;;1.30;99.90;;;;;;4358497;32;20549;-59
2023/02/06 12:57:26;;;;;;;0.75;0.75;;;1.20;99.90;;;;;;4365945;32;20364;-61
2023/02/06 12:59:56;;;;;;;;;;;1.10;99.90;;;;;;4376176;32;20095;-60
2023/02/06 13:02:54;;;;;;;0.90;0.90;;;1.10;99.90;;;;;;4380313;32;20005;-59